Weather at Pista da Barragem de Odivelas [CLOSED]

Public forecast

Using degrees Celsius for public forecast. Weather courtesy of forecast.io.

Closest aviation weather report (METAR) to Pista da Barragem de Odivelas

Closest report is Beja Airport / Airbase, 10.8 nm (19.9 km) SE.

2024/07/25 06:00 (retrieved 1 hour ago)

LPBJ 250600Z 28008KT 0600 FG BKN002 17/17 Q1013

Closest aviation forecast (TAF) to Pista da Barragem de Odivelas

Closest forecast is Beja Airport / Airbase, 10.8 nm (19.9 km) SE.

2024/07/25 06:18 (retrieved 44 minutes ago)

TAF LPBJ 250508Z 2506/2606 27008KT 4000 BCFG BKN005 PROB30 2506/2508 0800 FG BKN002 BECMG 2507/2510 9999 NSW SCT010 BECMG 2511/2514 33010KT CAVOK BECMG 2523/2601 30005KT